Time;durP1;ratioP1;P1;durP2;ratioP2;P2;SDS_P1;SDS_P2;PMS_P1;PMS_P2;Temp;Humidity;BMP_temperature;BMP_pressure;BME280_temperature;BME280_humidity;BME280_pressure;Samples;Min_cycle;Max_cycle;Signal;HPM_P1;HPM_P2
2023/09/08 00:00:54;;;;;;;;;;;;;;;25.34;41.14;100550.88;4488507;31;35783;-77
2023/09/08 00:03:21;;;;;;;;;;;;;;;25.19;41.29;100538.56;4478544;31;32746;-77
2023/09/08 00:05:49;;;;;;;;;;;;;;;25.04;41.37;100533.31;4489239;31;33964;-76
2023/09/08 00:08:16;;;;;;;;;;;;;;;24.29;44.08;100544.84;4478867;31;34206;-76
2023/09/08 00:10:43;;;;;;;;;;;;;;;25.22;41.65;100541.22;4488736;31;35067;-78
2023/09/08 00:13:11;;;;;;;;;;;;;;;24.90;42.64;100547.47;4476817;32;34243;-77
2023/09/08 00:15:38;;;;;;;;;;;;;;;25.45;41.18;100546.44;4488694;31;33165;-78
2023/09/08 00:18:06;;;;;;;;;;;;;;;25.44;41.33;100539.38;4495221;31;34707;-77
2023/09/08 00:20:34;;;;;;;;;;;;;;;24.70;42.92;100549.25;4492591;31;33871;-76
2023/09/08 00:23:01;;;;;;;;;;;;;;;24.71;42.93;100551.91;4488374;31;34246;-76
2023/09/08 00:25:30;;;;;;;;;;;;;;;24.66;42.96;100543.06;4493967;31;34318;-77
2023/09/08 00:27:57;;;;;;;;;;;;;;;24.06;44.44;100545.69;4486060;31;34003;-76
2023/09/08 00:30:24;;;;;;;;;;;;;;;24.16;44.36;100551.00;4488049;31;34014;-76
2023/09/08 00:32:53;;;;;;;;;;;;;;;23.81;45.48;100551.81;4490523;31;34034;-78
2023/09/08 00:35:21;;;;;;;;;;;;;;;23.21;46.78;100551.56;4488036;31;33389;-78
2023/09/08 00:37:48;;;;;;;;;;;;;;;22.92;47.59;100547.81;4490922;31;33978;-79
2023/09/08 00:40:16;;;;;;;;;;;;;;;24.21;44.32;100546.59;4490795;31;34008;-79
2023/09/08 00:42:44;;;;;;;;;;;;;;;24.53;43.23;100542.22;4486399;31;34706;-77
2023/09/08 00:45:11;;;;;;;;;;;;;;;24.75;42.57;100544.84;4488251;31;34096;-78
2023/09/08 00:47:39;;;;;;;;;;;;;;;25.20;41.53;100539.44;4493344;31;34997;-79
2023/09/08 00:50:06;;;;;;;;;;;;;;;24.78;42.40;100536.88;4485810;31;33964;-76
2023/09/08 00:52:34;;;;;;;;;;;;;;;24.51;43.00;100533.41;4488486;31;34272;-78
2023/09/08 00:55:01;;;;;;;;;;;;;;;24.53;42.70;100536.03;4480619;32;34161;-79
2023/09/08 00:57:29;;;;;;;;;;;;;;;24.25;43.51;100536.00;4470206;32;33668;-79
2023/09/08 00:59:57;;;;;;;;;;;;;;;24.23;43.51;100528.94;4486367;31;33814;-78
2023/09/08 01:02:24;;;;;;;;;;;;;;;24.57;42.78;100531.59;4480730;31;34413;-79
2023/09/08 01:04:52;;;;;;;;;;;;;;;24.14;44.08;100519.22;4490883;31;34220;-76
2023/09/08 01:07:19;;;;;;;;;;;;;;;24.01;44.68;100531.59;4488938;31;34575;-76
2023/09/08 01:09:47;;;;;;;;;;;;;;;23.84;44.97;100522.75;4471622;31;33983;-76
2023/09/08 01:12:15;;;;;;;;;;;;;;;23.65;45.47;100527.94;4475263;31;33770;-78
2023/09/08 01:14:42;;;;;;;;;;;;;;;23.24;46.60;100520.75;4471951;31;32135;-76
2023/09/08 01:17:09;;;;;;;;;;;;;;;23.43;46.13;100529.63;4485470;31;34084;-76
2023/09/08 01:19:37;;;;;;;;;;;;;;;23.65;45.80;100527.94;4487338;31;34105;-79
2023/09/08 01:22:07;;;;;;;;;;;;;;;23.12;47.00;100531.22;4471089;31;34576;-79
2023/09/08 01:24:53;;;;;;;;;;;;;;;23.55;45.96;100531.44;4490302;31;33199;-79
2023/09/08 01:27:21;;;;;;;;;;;;;;;23.85;44.57;100521.84;4476696;31;33892;-78
2023/09/08 01:29:49;;;;;;;;;;;;;;;23.77;44.66;100521.78;4474506;31;34006;-77
2023/09/08 01:32:16;;;;;;;;;;;;;;;24.39;42.90;100509.53;4471738;31;33160;-78
2023/09/08 01:34:44;;;;;;;;;;;;;;;23.93;44.22;100514.78;4474016;31;33965;-78
2023/09/08 01:37:12;;;;;;;;;;;;;;;24.22;43.87;100506.00;4480735;31;34765;-78
2023/09/08 01:39:39;;;;;;;;;;;;;;;24.26;43.99;100510.41;4485825;31;34544;-77
2023/09/08 01:42:06;;;;;;;;;;;;;;;24.29;43.19;100510.41;4487451;31;34383;-76
2023/09/08 01:44:34;;;;;;;;;;;;;;;24.98;42.22;100512.13;4493604;31;33258;-78
2023/09/08 01:47:01;;;;;;;;;;;;;;;24.77;42.83;100510.41;4490037;31;34325;-76
2023/09/08 01:49:29;;;;;;;;;;;;;;;24.59;43.28;100513.94;4485001;31;34095;-78
2023/09/08 01:51:56;;;;;;;;;;;;;;;24.48;43.59;100506.88;4485334;31;34555;-78
2023/09/08 01:54:23;;;;;;;;;;;;;;;24.32;43.55;100505.13;4492978;31;33859;-76
2023/09/08 01:56:51;;;;;;;;;;;;;;;23.56;45.45;100512.03;4490964;31;33960;-75
2023/09/08 01:59:18;;;;;;;;;;;;;;;23.90;44.71;100501.56;4485325;31;34431;-78
2023/09/08 02:01:45;;;;;;;;;;;;;;;24.37;43.06;100503.34;4489020;31;34410;-77
2023/09/08 02:04:13;;;;;;;;;;;;;;;23.83;44.70;100510.38;4494202;31;32998;-78
2023/09/08 02:06:40;;;;;;;;;;;;;;;23.82;44.19;100503.34;4477425;32;33918;-76
2023/09/08 02:09:10;;;;;;;;;;;;;;;23.61;44.84;100512.94;4490917;31;35405;-76
2023/09/08 02:11:37;;;;;;;;;;;;;;;23.28;45.27;100516.34;4476257;32;34735;-76
2023/09/08 02:14:04;;;;;;;;;;;;;;;23.73;44.79;100510.31;4491907;31;33321;-78
2023/09/08 02:16:31;;;;;;;;;;;;;;;23.50;45.04;100512.03;4491172;31;34222;-77
2023/09/08 02:18:59;;;;;;;;;;;;;;;23.58;45.01;100515.56;4487548;31;33664;-78
2023/09/08 02:21:26;;;;;;;;;;;;;;;24.34;43.58;100508.66;4492465;31;34244;-78
2023/09/08 02:23:53;;;;;;;;;;;;;;;24.11;43.61;100506.88;4488393;31;33881;-76
2023/09/08 02:26:21;;;;;;;;;;;;;;;23.51;45.57;100519.09;4493671;31;34817;-76
2023/09/08 02:28:49;;;;;;;;;;;;;;;23.84;44.41;100506.88;4492122;31;33987;-79
2023/09/08 02:31:17;;;;;;;;;;;;;;;23.45;45.35;100516.41;4497291;31;34533;-77
2023/09/08 02:33:44;;;;;;;;;;;;;;;23.81;44.89;100506.84;4485808;31;33385;-78
2023/09/08 02:36:12;;;;;;;;;;;;;;;23.79;45.54;100508.59;4484373;31;34954;-77
2023/09/08 02:38:39;;;;;;;;;;;;;;;23.22;46.80;100511.94;4488005;31;33361;-76
2023/09/08 02:41:07;;;;;;;;;;;;;;;23.82;45.22;100509.50;4489246;31;34117;-75
2023/09/08 02:43:34;;;;;;;;;;;;;;;24.10;43.55;100510.41;4488990;31;34235;-76
2023/09/08 02:46:01;;;;;;;;;;;;;;;24.42;42.91;100506.00;4486536;31;33884;-76
2023/09/08 02:48:30;;;;;;;;;;;;;;;24.59;42.39;100511.31;4486273;31;34197;-75
2023/09/08 02:50:57;;;;;;;;;;;;;;;23.94;44.21;100519.22;4488442;31;34329;-77
2023/09/08 02:53:28;;;;;;;;;;;;;;;23.27;45.53;100526.03;4485382;31;33498;-77
2023/09/08 02:55:56;;;;;;;;;;;;;;;22.45;47.83;100516.72;4484383;31;33959;-76
2023/09/08 02:58:25;;;;;;;;;;;;;;;22.68;47.32;100516.88;4488753;31;34232;-77
2023/09/08 03:00:52;;;;;;;;;;;;;;;22.92;47.07;100518.75;4494279;31;34389;-76
2023/09/08 03:03:21;;;;;;;;;;;;;;;22.47;47.76;100520.25;4485201;31;33329;-77
2023/09/08 03:05:54;;;;;;;;;;;;;;;22.34;48.25;100521.00;4490499;31;34550;-78
2023/09/08 03:08:22;;;;;;;;;;;;;;;22.50;48.13;100524.66;4496955;31;33870;-77
2023/09/08 03:10:50;;;;;;;;;;;;;;;22.45;48.16;100521.13;4493849;31;34822;-75
2023/09/08 03:13:17;;;;;;;;;;;;;;;22.39;48.19;100521.94;4494955;31;33351;-77
2023/09/08 03:15:44;;;;;;;;;;;;;;;22.68;47.52;100518.63;4489258;31;34038;-76
2023/09/08 03:18:12;;;;;;;;;;;;;;;23.08;46.51;100524.16;4484711;31;34055;-76
2023/09/08 03:20:43;;;;;;;;;;;;;;;23.62;45.05;100517.34;4486212;31;34934;-76
2023/09/08 03:23:11;;;;;;;;;;;;;;;23.04;46.40;100519.75;4486358;31;33491;-78
2023/09/08 03:25:38;;;;;;;;;;;;;;;23.33;45.93;100518.16;4484839;31;35100;-75
2023/09/08 03:28:05;;;;;;;;;;;;;;;23.59;45.06;100522.63;4491279;31;34923;-77
2023/09/08 03:30:34;;;;;;;;;;;;;;;23.61;45.21;100525.28;4490877;31;34310;-78
2023/09/08 03:33:01;;;;;;;;;;;;;;;22.89;46.59;100528.44;4487769;31;34180;-75
2023/09/08 03:35:29;;;;;;;;;;;;;;;22.57;47.76;100523.84;4488188;31;33883;-78
2023/09/08 03:37:56;;;;;;;;;;;;;;;22.30;48.31;100528.00;4490835;31;34256;-76
2023/09/08 03:40:24;;;;;;;;;;;;;;;22.92;47.18;100518.75;4491751;31;34905;-78
2023/09/08 03:42:51;;;;;;;;;;;;;;;23.45;45.56;100525.25;4484460;31;33133;-75
2023/09/08 03:45:19;;;;;;;;;;;;;;;23.32;45.55;100519.00;4483687;31;35138;-76
2023/09/08 03:47:46;;;;;;;;;;;;;;;23.62;44.74;100522.63;4496564;31;34129;-76
2023/09/08 03:50:14;;;;;;;;;;;;;;;23.54;45.34;100524.38;4492537;31;34237;-77
2023/09/08 03:52:41;;;;;;;;;;;;;;;23.69;44.58;100519.13;4488912;31;33198;-76
2023/09/08 03:55:09;;;;;;;;;;;;;;;23.05;46.86;100521.53;4487279;31;33909;-77
2023/09/08 03:57:36;;;;;;;;;;;;;;;23.03;46.38;100518.87;4488948;31;35019;-78
2023/09/08 04:00:06;;;;;;;;;;;;;;;23.42;45.74;100526.97;4487220;31;34864;-76
2023/09/08 04:02:40;;;;;;;;;;;;;;;22.50;48.03;100530.84;4492388;31;33178;-77
2023/09/08 04:05:08;;;;;;;;;;;;;;;22.49;48.33;100523.78;4488055;31;34078;-76
2023/09/08 04:07:35;;;;;;;;;;;;;;;22.56;48.24;100528.25;4474492;31;34813;-76
2023/09/08 04:10:03;;;;;;;;;;;;;;;22.30;48.68;100527.12;4492899;31;33978;-78
2023/09/08 04:12:31;;;;;;;;;;;;;;;22.39;48.79;100532.50;4485533;31;34040;-76
2023/09/08 04:14:58;;;;;;;;;;;;;;;22.05;49.24;100533.91;4476417;32;33751;-77
2023/09/08 04:17:25;;;;;;;;;;;;;;;23.15;46.22;100536.56;4488572;31;35021;-76
2023/09/08 04:19:53;;;;;;;;;;;;;;;22.66;47.47;100525.66;4486390;31;33667;-79
2023/09/08 04:22:21;;;;;;;;;;;;;;;23.18;46.66;100533.94;4456517;31;34495;-77
2023/09/08 04:24:49;;;;;;;;;;;;;;;22.53;48.22;100527.31;4487765;31;34308;-79
2023/09/08 04:27:17;;;;;;;;;;;;;;;23.74;45.05;100527.97;4486121;31;35078;-77
2023/09/08 04:29:44;;;;;;;;;;;;;;;24.08;44.26;100520.09;4486762;31;33700;-76
2023/09/08 04:32:11;;;;;;;;;;;;;;;23.51;45.90;100535.81;4494946;31;33304;-76
2023/09/08 04:34:39;;;;;;;;;;;;;;;23.06;46.92;100526.78;4485540;31;33631;-78
2023/09/08 04:37:07;;;;;;;;;;;;;;;23.51;45.66;100535.81;4498079;31;34024;-75
2023/09/08 04:39:34;;;;;;;;;;;;;;;23.52;45.46;100536.69;4479945;31;34052;-79
2023/09/08 04:42:02;;;;;;;;;;;;;;;23.34;45.63;100535.75;4472787;32;33806;-79
2023/09/08 04:44:30;;;;;;;;;;;;;;;23.03;46.72;100536.50;4491318;31;34039;-75
2023/09/08 04:46:57;;;;;;;;;;;;;;;22.78;47.69;100541.59;4485441;31;34823;-76
2023/09/08 04:49:25;;;;;;;;;;;;;;;22.77;47.67;100537.16;4472623;31;33097;-79
2023/09/08 04:51:53;;;;;;;;;;;;;;;23.73;45.52;100542.06;4488833;31;33943;-76
2023/09/08 04:54:26;;;;;;;;;;;;;;;23.62;45.43;100549.06;4480314;32;33412;-76
2023/09/08 04:56:54;;;;;;;;;;;;;;;23.27;46.46;100539.25;4485493;32;33504;-78
2023/09/08 04:59:39;;;;;;;;;;;;;;;23.07;46.91;100548.84;4492494;31;35442;-78
2023/09/08 05:02:07;;;;;;;;;;;;;;;23.70;45.51;100546.44;4493450;31;34016;-76
2023/09/08 05:04:34;;;;;;;;;;;;;;;23.51;45.60;100540.25;4490483;31;34141;-76
2023/09/08 05:07:01;;;;;;;;;;;;;;;22.57;48.07;100532.63;4484601;31;33966;-77
2023/09/08 05:09:29;;;;;;;;;;;;;;;23.21;46.59;100546.28;4496507;31;34239;-77
2023/09/08 05:11:59;;;;;;;;;;;;;;;23.47;45.85;100543.72;4486297;31;33181;-78
2023/09/08 05:14:26;;;;;;;;;;;;;;;23.63;45.60;100545.56;4485175;31;33978;-77
2023/09/08 05:16:56;;;;;;;;;;;;;;;24.08;44.85;100538.63;4487867;31;33931;-76
2023/09/08 05:19:24;;;;;;;;;;;;;;;24.93;42.71;100546.56;4486474;31;34154;-76
2023/09/08 05:21:53;;;;;;;;;;;;;;;24.70;43.47;100541.31;4495858;31;32962;-78
2023/09/08 05:24:20;;;;;;;;;;;;;;;24.85;43.23;100546.59;4485369;31;33523;-77
2023/09/08 05:26:48;;;;;;;;;;;;;;;25.38;42.10;100543.81;4487868;31;33850;-75
2023/09/08 05:29:15;;;;;;;;;;;;;;;24.29;44.88;100547.47;4493319;31;33762;-76
2023/09/08 05:31:43;;;;;;;;;;;;;;;23.56;46.53;100559.63;4496533;31;33806;-76
2023/09/08 05:34:11;;;;;;;;;;;;;;;23.84;46.32;100559.78;4487782;31;34203;-78
2023/09/08 05:36:39;;;;;;;;;;;;;;;23.69;47.02;100553.50;4487616;31;34910;-76
2023/09/08 05:39:07;;;;;;;;;;;;;;;23.50;47.37;100559.63;4491333;31;35008;-76
2023/09/08 05:41:35;;;;;;;;;;;;;;;23.30;48.09;100557.78;4471381;31;33247;-76
2023/09/08 05:44:03;;;;;;;;;;;;;;;24.21;46.08;100543.97;4493172;31;33896;-77
2023/09/08 05:46:32;;;;;;;;;;;;;;;24.11;46.29;100546.59;4488721;31;34313;-77
2023/09/08 05:49:00;;;;;;;;;;;;;;;24.36;45.74;100543.97;4497710;31;34058;-77
2023/09/08 05:51:27;;;;;;;;;;;;;;;24.85;44.91;100543.94;4491131;31;33215;-76
2023/09/08 05:53:55;;;;;;;;;;;;;;;25.07;44.29;100550.09;4488141;31;34663;-76
2023/09/08 05:56:24;;;;;;;;;;;;;;;24.92;44.81;100545.69;4490481;31;34875;-76
2023/09/08 05:58:52;;;;;;;;;;;;;;;25.24;44.47;100542.09;4480067;31;34448;-78
2023/09/08 06:01:20;;;;;;;;;;;;;;;25.15;44.46;100543.84;4476605;31;33423;-76
2023/09/08 06:03:49;;;;;;;;;;;;;;;25.38;44.20;100549.13;4489886;31;33949;-77
2023/09/08 06:06:17;;;;;;;;;;;;;;;25.08;44.64;100550.97;4490134;31;33847;-77
2023/09/08 06:08:44;;;;;;;;;;;;;;;25.27;44.13;100552.69;4497174;31;33912;-77
2023/09/08 06:11:12;;;;;;;;;;;;;;;25.49;43.97;100549.94;4486366;31;34252;-78
2023/09/08 06:13:40;;;;;;;;;;;;;;;25.82;43.39;100545.37;4489560;31;34931;-76
2023/09/08 06:16:10;;;;;;;;;;;;;;;25.97;43.19;100550.59;4481640;32;33522;-76
2023/09/08 06:18:41;;;;;;;;;;;;;;;26.24;42.93;100553.97;4487808;31;33708;-76
2023/09/08 06:21:08;;;;;;;;;;;;;;;26.02;43.66;100554.12;4491757;31;32594;-78
2023/09/08 06:23:36;;;;;;;;;;;;;;;26.22;43.39;100550.44;4486915;31;35086;-75
2023/09/08 06:26:04;;;;;;;;;;;;;;;26.77;42.32;100555.31;4476267;32;33835;-77
2023/09/08 06:28:32;;;;;;;8.65;4.65;;;;;;;26.32;41.57;100561.88;4484125;32;34747;-78
2023/09/08 06:31:00;;;;;;;8.70;4.53;;;;;;;26.52;41.08;100559.03;4490342;31;33161;-77
2023/09/08 06:33:29;;;;;;;7.57;4.12;;;;;;;27.00;40.56;100556.84;4485094;31;32410;-79
2023/09/08 06:35:57;;;;;;;10.90;4.85;;;;;;;26.57;40.98;100557.25;4496099;31;33794;-77
2023/09/08 06:38:24;;;;;;;7.80;4.10;;;;;;;27.08;40.03;100560.28;4485945;31;33721;-79
2023/09/08 06:40:53;;;;;;;7.28;4.57;;;;;;;27.23;39.32;100560.13;4484492;32;33281;-78
2023/09/08 06:43:21;;;;;;;9.23;4.70;;;;;;;27.54;38.94;100557.12;4495707;31;34929;-78
2023/09/08 06:45:49;;;;;;;9.07;4.85;;;;;;;27.80;38.14;100561.22;4484324;31;34856;-79
2023/09/08 06:48:17;;;;;;;8.38;4.32;;;;;;;27.84;37.93;100554.94;4472006;31;34829;-77
2023/09/08 06:50:45;;;;;;;9.52;4.50;;;;;;;27.72;38.03;100558.69;4478641;31;33556;-78
2023/09/08 06:53:13;;;;;;;10.20;4.78;;;;;;;27.61;37.80;100561.47;4484770;31;35636;-78
2023/09/08 06:55:42;;;;;;;11.10;4.55;;;;;;;28.09;37.00;100547.50;4468478;31;33185;-78
2023/09/08 06:58:14;;;;;;;6.82;4.37;;;;;;;27.78;37.43;100557.72;4487162;31;33845;-79
2023/09/08 07:00:43;;;;;;;9.73;4.55;;;;;;;28.26;37.08;100549.00;4493624;31;32130;-78
2023/09/08 07:03:11;;;;;;;7.30;4.40;;;;;;;28.52;36.03;100548.63;4487083;31;34549;-81
2023/09/08 07:05:42;;;;;;;7.30;4.40;;;;;;;28.80;35.77;100551.66;4486162;31;34268;-76
2023/09/08 07:08:10;;;;;;;9.23;4.47;;;;;;;29.01;35.22;100551.28;4465493;32;33327;-76
2023/09/08 07:10:38;;;;;;;7.12;4.50;;;;;;;28.61;35.67;100551.12;4485964;31;33046;-77
2023/09/08 07:13:05;;;;;;;6.75;4.10;;;;;;;29.08;34.63;100557.34;4492154;31;33871;-75
2023/09/08 07:15:33;;;;;;;7.65;4.07;;;;;;;29.25;34.40;100554.41;4496296;31;34429;-77
2023/09/08 07:18:01;;;;;;;12.63;4.62;;;;;;;29.26;34.40;100558.81;4487761;31;33825;-77
2023/09/08 07:20:32;;;;;;;6.68;4.22;;;;;;;29.29;34.32;100549.88;4487365;31;33525;-75
2023/09/08 07:23:01;;;;;;;10.70;4.60;;;;;;;29.19;34.72;100544.72;4485896;31;33981;-78
2023/09/08 07:25:29;;;;;;;6.72;4.00;;;;;;;29.35;34.88;100541.75;4486098;31;35005;-77
2023/09/08 07:27:57;;;;;;;7.07;4.25;;;;;;;29.23;34.49;100539.34;4489179;31;33414;-82
2023/09/08 07:30:33;;;;;;;8.13;4.75;;;;;;;29.57;33.92;100540.38;4486946;31;33497;-79
2023/09/08 07:33:01;;;;;;;;;;;;;;;29.67;34.27;100529.47;4486539;31;34089;-79
2023/09/08 07:35:29;;;;;;;8.32;4.40;;;;;;;30.06;33.58;100526.84;4492541;31;34700;-78
2023/09/08 07:37:56;;;;;;;9.70;4.53;;;;;;;30.11;33.11;100530.28;4486249;31;33891;-77
2023/09/08 07:40:24;;;;;;;8.20;3.92;;;;;;;30.40;32.77;100526.03;4478000;32;32953;-78
2023/09/08 07:42:52;;;;;;;7.05;4.40;;;;;;;30.84;31.73;100526.66;4490279;31;34394;-80
2023/09/08 07:45:20;;;;;;;9.32;3.95;;;;;;;30.41;32.51;100523.31;4498228;31;34802;-79
2023/09/08 07:47:47;;;;;;;8.60;4.05;;;;;;;30.32;32.92;100529.75;4488433;31;34060;-80
2023/09/08 07:50:17;;;;;;;7.60;4.35;;;;;;;30.62;32.24;100526.34;4497567;31;32947;-80
2023/09/08 07:52:48;;;;;;;8.77;4.30;;;;;;;30.24;32.82;100530.84;4477686;31;33883;-81
2023/09/08 07:55:22;;;;;;;8.20;4.00;;;;;;;30.78;32.14;100525.88;4478069;31;35235;-78
2023/09/08 07:57:51;;;;;;;8.68;4.10;;;;;;;31.22;31.27;100527.41;4487345;31;34582;-79
2023/09/08 08:00:19;;;;;;;7.57;4.43;;;;;;;31.39;31.02;100530.47;4492943;31;33022;-78
2023/09/08 08:02:50;;;;;;;7.43;4.32;;;;;;;31.85;30.43;100526.41;4485559;31;34400;-81
2023/09/08 08:05:18;;;;;;;5.82;3.92;;;;;;;31.81;30.38;100522.03;4471141;32;33901;-82
2023/09/08 08:16:36;;;;;;;7.15;3.65;;;;;;;33.07;28.73;100530.31;4487612;31;34385;-80
2023/09/08 08:19:05;;;;;;;7.65;4.05;;;;;;;32.85;28.93;100523.06;4487216;31;33847;-78
2023/09/08 08:21:32;;;;;;;10.15;3.97;;;;;;;33.35;28.57;100518.59;4486330;31;34579;-82
2023/09/08 08:24:00;;;;;;;8.13;3.85;;;;;;;33.17;28.58;100525.53;4487160;31;33280;-80
2023/09/08 08:26:32;;;;;;;8.05;4.25;;;;;;;33.28;27.90;100520.62;4491004;31;33589;-81
2023/09/08 08:29:00;;;;;;;8.85;4.65;;;;;;;33.99;27.16;100525.94;4490056;31;33416;-81
2023/09/08 08:31:27;;;;;;;8.65;4.47;;;;;;;34.27;26.90;100513.12;4486682;31;33881;-80
2023/09/08 08:33:55;;;;;;;7.62;4.12;;;;;;;34.06;27.22;100514.87;4490148;31;33191;-77
2023/09/08 08:36:23;;;;;;;8.98;4.10;;;;;;;34.47;27.03;100508.72;4488311;31;34538;-78
2023/09/08 08:38:50;;;;;;;7.18;4.15;;;;;;;34.60;26.60;100504.53;4485100;31;33949;-77
2023/09/08 08:41:18;;;;;;;8.27;4.18;;;;;;;35.38;25.60;100513.62;4485756;31;34489;-79
2023/09/08 08:43:47;;;;;;;8.40;3.60;;;;;;;35.37;25.75;100508.31;4491910;31;33039;-80
2023/09/08 08:46:15;;;;;;;8.57;4.25;;;;;;;35.93;24.93;100503.84;4480016;32;33170;-79
2023/09/08 08:48:43;;;;;;;;;;;;;;;35.79;25.03;100505.41;4491032;31;34650;-78
2023/09/08 08:51:12;;;;;;;;;;;;;;;35.74;24.82;100506.59;4478738;31;34626;-81
2023/09/08 08:53:41;;;;;;;;;;;;;;;35.95;24.47;100507.31;4474390;31;33451;-78
2023/09/08 08:56:09;;;;;;;;;;;;;;;35.99;24.40;100509.81;4475941;31;34286;-77
2023/09/08 08:58:37;;;;;;;;;;;;;;;35.79;24.60;100502.72;4494332;31;34225;-81
2023/09/08 09:01:05;;;;;;;;;;;;;;;36.54;24.02;100500.75;4473075;32;34055;-79
2023/09/08 09:03:32;;;;;;;;;;;;;;;36.59;23.87;100493.28;4475434;31;33081;-78
2023/09/08 09:06:00;;;;;;;;;;;;;;;36.92;23.80;100497.00;4484601;31;34268;-81
2023/09/08 09:08:27;;;;;;;;;;;;;;;36.80;23.70;100496.72;4481383;31;32371;-81
2023/09/08 09:10:55;;;;;;;;;;;;;;;37.06;23.70;100496.25;4479340;31;34991;-80
2023/09/08 09:13:22;;;;;;;;;;;;;;;36.98;23.29;100493.97;4473406;32;33400;-79
2023/09/08 09:15:50;;;;;;;;;;;;;;;37.57;22.75;100497.00;4496517;31;34519;-79
2023/09/08 09:18:17;;;;;;;;;;;;;;;37.80;22.88;100486.75;4485886;31;33728;-79
2023/09/08 09:20:53;;;;;;;;;;;;;;;37.50;23.16;100484.84;4473017;32;34467;-80
2023/09/08 09:23:30;;;;;;;;;;;;;;;37.81;22.87;100483.09;4493151;31;33017;-80
2023/09/08 09:25:57;;;;;;;;;;;;;;;37.85;22.71;100484.66;4487928;31;34645;-79
2023/09/08 09:28:25;;;;;;;;;;;;;;;38.19;22.27;100480.87;4469654;31;32403;-83
2023/09/08 09:30:54;;;;;;;;;;;;;;;38.50;21.25;100469.06;4476748;32;34014;-81
2023/09/08 09:33:22;;;;;;;;;;;;;;;38.46;21.81;100470.22;4493642;31;32938;-80
2023/09/08 09:35:54;;;;;;;;;;;;;;;38.82;21.61;100471.63;4487562;31;33327;-79
2023/09/08 09:38:21;;;;;;;;;;;;;;;38.25;22.37;100474.19;4486878;31;34276;-79
2023/09/08 09:40:49;;;;;;;;;;;;;;;38.91;21.29;100481.00;4488664;31;34008;-81
2023/09/08 09:43:21;;;;;;;8.52;4.25;;;;;;;38.80;21.10;100478.97;4492830;31;33486;-78
2023/09/08 09:45:48;;;;;;;;;;;;;;;38.61;21.52;100478.38;4494338;31;33341;-81
2023/09/08 09:48:16;;;;;;;;;;;;;;;38.72;21.61;100478.59;4485580;31;34148;-80
2023/09/08 09:50:44;;;;;;;;;;;;;;;38.60;22.08;100482.06;4474619;31;33565;-83
2023/09/08 09:53:12;;;;;;;;;;;;;;;39.05;21.69;100472.91;4494790;31;33448;-79
2023/09/08 09:55:40;;;;;;;;;;;;;;;39.37;20.92;100472.69;4493035;31;34846;-80
2023/09/08 09:58:10;;;;;;;;;;;;;;;39.13;21.28;100469.69;4486075;31;34625;-77
2023/09/08 10:00:38;;;;;;;;;;;;;;;39.33;21.10;100468.44;4488716;31;33937;-77
2023/09/08 10:03:06;;;;;;;;;;;;;;;39.06;21.02;100466.53;4475474;32;33408;-80
2023/09/08 10:05:39;;;;;;;;;;;;;;;39.35;20.47;100474.63;4479339;31;34229;-82
2023/09/08 10:08:07;;;;;;;;;;;;;;;39.02;20.81;100472.22;4475224;32;34391;-78
2023/09/08 10:10:37;;;;;;;;;;;;;;;39.40;20.51;100471.59;4485215;31;34104;-81
2023/09/08 10:13:06;;;;;;;;;;;;;;;39.10;20.64;100461.78;4478706;31;33470;-80
2023/09/08 10:15:34;;;;;;;;;;;;;;;39.38;20.61;100465.41;4472802;31;34644;-77
2023/09/08 10:18:03;;;;;;;;;;;;;;;39.27;19.98;100461.56;4473155;31;34911;-79
2023/09/08 10:20:31;;;;;;;;;;;;;;;38.90;20.85;100466.56;4484726;32;33512;-82
2023/09/08 10:23:12;;;;;;;;;;;;;;;38.82;20.84;100466.19;4491482;31;34048;-77
2023/09/08 10:25:42;;;;;;;;;;;;;;;38.64;21.33;100461.94;4487351;31;34278;-80
2023/09/08 10:28:10;;;;;;;;;;;;;;;38.65;21.43;100458.25;4493697;31;34992;-78
2023/09/08 10:30:37;;;;;;;;;;;;;;;38.87;21.17;100453.25;4492159;31;34231;-80
2023/09/08 10:33:04;;;;;;;;;;;;;;;38.65;21.79;100453.72;4475404;31;33229;-78
2023/09/08 10:35:33;;;;;;;;;;;;;;;38.72;21.40;100454.22;4479454;31;33818;-81
2023/09/08 10:38:19;;;;;;;;;;;;;;;38.26;21.96;100446.19;4475831;31;35112;-78
2023/09/08 10:40:47;;;;;;;9.93;4.03;;;;;;;38.46;21.49;100448.56;4490619;31;35021;-81
2023/09/08 10:43:14;;;;;;;6.80;4.10;;;;;;;38.83;20.97;100450.81;4483690;31;33142;-80
2023/09/08 10:45:42;;;;;;;9.75;4.53;;;;;;;37.91;21.46;100443.72;4484174;31;33632;-79
2023/09/08 10:48:10;;;;;;;6.90;4.40;;;;;;;37.94;21.98;100446.28;4482936;32;33840;-79
2023/09/08 10:50:40;;;;;;;7.97;4.60;;;;;;;37.70;22.50;100438.62;4482639;32;33920;-82
2023/09/08 10:53:12;;;;;;;;;;;;;;;37.74;22.27;100444.72;4483950;32;33556;-80
2023/09/08 10:55:42;;;;;;;;;;;;;;;38.76;20.90;100444.94;4484242;32;33821;-79
2023/09/08 10:58:10;;;;;;;;;;;;;;;38.89;20.60;100451.31;4484020;31;34094;-81
2023/09/08 11:00:44;;;;;;;;;;;;;;;38.13;20.89;100440.63;4484044;31;34276;-77
2023/09/08 11:03:12;;;;;;;;;;;;;;;38.52;20.94;100442.75;4490384;31;33485;-78
2023/09/08 11:05:41;;;;;;;;;;;;;;;38.73;21.17;100439.69;4472708;32;33947;-80
2023/09/08 11:08:08;;;;;;;;;;;;;;;38.78;20.82;100437.56;4485537;31;33543;-79
2023/09/08 11:10:37;;;;;;;;;;;;;;;39.04;20.49;100429.66;4477782;31;34241;-80
2023/09/08 11:13:04;;;;;;;;;;;;;;;38.42;21.86;100430.78;4487211;31;33831;-78
2023/09/08 11:15:32;;;;;;;;;;;;;;;38.93;20.80;100431.19;4491774;31;34589;-79
2023/09/08 11:18:04;;;;;;;;;;;;;;;38.86;20.94;100435.25;4492097;31;33964;-81
2023/09/08 11:20:31;;;;;;;;;;;;;;;38.72;20.66;100433.41;4472040;31;33493;-79
2023/09/08 11:22:59;;;;;;;;;;;;;;;38.76;20.08;100436.81;4486749;31;33037;-80
2023/09/08 11:25:26;;;;;;;;;;;;;;;39.07;19.71;100432.19;4478116;31;33943;-80
2023/09/08 11:27:54;;;;;;;;;;;;;;;39.38;19.72;100430.19;4480354;31;34099;-78
2023/09/08 11:30:21;;;;;;;;;;;;;;;38.28;20.07;100418.06;4467955;32;33651;-78
2023/09/08 11:32:49;;;;;;;;;;;;;;;38.32;19.99;100414.19;4491470;31;33203;-80
2023/09/08 11:35:16;;;;;;;;;;;;;;;38.61;19.90;100408.00;4482677;31;34944;-78
2023/09/08 11:37:44;;;;;;;;;;;;;;;38.11;20.36;100404.69;4488529;31;34315;-79
2023/09/08 11:40:14;;;;;;;;;;;;;;;37.74;20.62;100402.31;4489232;31;34211;-78
2023/09/08 11:42:45;;;;;;;;;;;;;;;37.51;21.67;100410.88;4489674;31;32415;-78
2023/09/08 11:45:13;;;;;;;;;;;;;;;37.88;20.65;100403.34;4495206;31;35176;-79
2023/09/08 11:47:42;;;;;;;;;;;;;;;38.14;19.48;100405.38;4471956;31;33854;-79
2023/09/08 11:50:11;;;;;;;;;;;;;;;38.47;19.56;100406.13;4495408;31;33834;-79
2023/09/08 11:52:40;;;;;;;;;;;;;;;38.35;19.68;100407.75;4493376;31;33802;-80
2023/09/08 11:55:08;;;;;;;;;;;;;;;38.65;20.15;100404.13;4485630;31;34013;-84
2023/09/08 11:57:35;;;;;;;;;;;;;;;38.40;20.70;100400.19;4481979;31;33894;-81
2023/09/08 12:00:05;;;;;;;;;;;;;;;38.50;20.28;100401.38;4469524;31;33959;-81
2023/09/08 12:02:36;;;;;;;;;;;;;;;38.57;19.14;100401.03;4470899;31;33338;-79
2023/09/08 12:05:04;;;;;;;;;;;;;;;38.90;18.67;100398.88;4494503;31;33718;-78
2023/09/08 12:07:31;;;;;;;;;;;;;;;39.07;18.54;100394.25;4490595;31;34902;-78
2023/09/08 12:10:07;;;;;;;6.62;3.70;;;;;;;38.84;18.50;100393.84;4491511;31;33880;-78
2023/09/08 12:12:41;;;;;;;6.80;3.37;;;;;;;38.13;19.69;100397.34;4489146;31;34023;-80
2023/09/08 12:15:09;;;;;;;;;;;;;;;38.52;18.99;100388.63;4486739;31;34158;-78
2023/09/08 12:17:49;;;;;;;;;;;;;;;37.99;19.87;100383.78;4488651;31;34629;-78
2023/09/08 12:20:17;;;;;;;;;;;;;;;38.01;19.02;100379.16;4492901;31;33895;-80
2023/09/08 12:22:48;;;;;;;;;;;;;;;38.25;19.09;100376.78;4486846;31;33108;-81
2023/09/08 12:25:16;;;;;;;;;;;;;;;38.18;18.73;100378.16;4488025;31;33745;-79
2023/09/08 12:27:44;;;;;;;;;;;;;;;37.95;19.51;100377.69;4475065;31;33267;-78
2023/09/08 12:30:16;;;;;;;;;;;;;;;38.38;19.34;100369.66;4476010;31;34861;-80
2023/09/08 12:32:45;;;;;;;;;;;;;;;38.47;19.76;100369.09;4472040;31;31812;-78
2023/09/08 12:35:12;;;;;;;;;;;;;;;39.02;18.81;100367.47;4487448;31;34054;-79